createdAt,value
2023-05-04T00:01:44.194Z,99.90
2023-05-04T00:04:31.205Z,99.90
2023-05-04T00:07:18.184Z,99.90
2023-05-04T00:10:05.470Z,99.90
2023-05-04T00:12:46.151Z,99.90
2023-05-04T00:15:33.217Z,99.90
2023-05-04T00:18:14.184Z,99.90
2023-05-04T00:21:01.515Z,99.90
2023-05-04T00:23:41.096Z,99.90
2023-05-04T00:26:28.228Z,99.90
2023-05-04T00:29:08.138Z,99.90
2023-05-04T00:31:55.284Z,99.90
2023-05-04T00:34:36.134Z,99.90
2023-05-04T00:37:23.370Z,99.90
2023-05-04T00:40:10.211Z,99.90
2023-05-04T00:42:50.243Z,99.90
2023-05-04T00:45:37.125Z,99.90
2023-05-04T00:48:17.234Z,99.90
2023-05-04T00:51:04.127Z,99.90
2023-05-04T00:53:45.241Z,99.90
2023-05-04T00:56:32.169Z,99.90
2023-05-04T00:59:14.036Z,99.90
2023-05-04T01:02:01.205Z,99.90
2023-05-04T01:04:41.257Z,99.90
2023-05-04T01:07:36.209Z,99.90
2023-05-04T01:10:26.153Z,99.90
2023-05-04T01:13:13.997Z,99.90
2023-05-04T01:16:02.131Z,99.90
2023-05-04T01:18:49.309Z,99.90
2023-05-04T01:21:29.178Z,99.90
2023-05-04T01:24:16.417Z,99.90
2023-05-04T01:27:00.230Z,99.90
2023-05-04T01:29:55.361Z,99.90
2023-05-04T01:32:36.266Z,99.90
2023-05-04T01:35:23.281Z,99.90
2023-05-04T01:38:03.225Z,99.90
2023-05-04T01:40:50.313Z,99.90
2023-05-04T01:43:31.186Z,99.90
2023-05-04T01:46:18.460Z,99.90
2023-05-04T01:48:58.244Z,99.90
2023-05-04T01:51:47.014Z,99.90
2023-05-04T01:54:27.227Z,99.90
2023-05-04T01:57:21.257Z,99.90
2023-05-04T02:00:08.398Z,99.90
2023-05-04T02:02:52.388Z,99.90
2023-05-04T02:05:41.011Z,99.90
2023-05-04T02:08:23.216Z,99.90
2023-05-04T02:11:10.381Z,99.90
2023-05-04T02:13:52.207Z,99.90
2023-05-04T02:16:40.018Z,99.90
2023-05-04T02:19:20.243Z,99.90
2023-05-04T02:22:07.341Z,99.90
2023-05-04T02:24:47.252Z,99.90
2023-05-04T02:27:34.389Z,99.90
2023-05-04T02:30:15.268Z,99.90
2023-05-04T02:32:55.501Z,99.90
2023-05-04T02:35:42.270Z,99.90
2023-05-04T02:38:29.370Z,99.90
2023-05-04T02:41:24.324Z,99.90
2023-05-04T02:44:11.340Z,99.90
2023-05-04T02:46:51.328Z,99.90
2023-05-04T02:49:45.342Z,99.90
2023-05-04T02:52:32.362Z,99.90
2023-05-04T02:55:13.354Z,99.90
2023-05-04T02:58:00.458Z,99.90
2023-05-04T03:00:40.264Z,99.90
2023-05-04T03:03:27.361Z,99.90
2023-05-04T03:06:09.292Z,99.50
2023-05-04T03:08:57.805Z,98.90
2023-05-04T03:11:37.351Z,98.50
2023-05-04T03:14:24.479Z,98.30
2023-05-04T03:17:04.300Z,98.10
2023-05-04T03:19:51.802Z,98.00
2023-05-04T03:22:32.381Z,97.80
2023-05-04T03:25:19.558Z,97.80
2023-05-04T03:27:59.355Z,97.70
2023-05-04T03:30:46.449Z,97.70
2023-05-04T03:33:28.276Z,97.70
2023-05-04T03:36:15.791Z,97.50
2023-05-04T03:38:56.404Z,97.00
2023-05-04T03:41:59.330Z,96.60
2023-05-04T03:44:46.324Z,96.30
2023-05-04T03:47:33.446Z,95.60
2023-05-04T03:50:21.657Z,95.20
2023-05-04T03:53:01.326Z,94.80
2023-05-04T03:55:48.526Z,94.30
2023-05-04T03:58:29.311Z,93.80
2023-05-04T04:01:18.590Z,93.60
2023-05-04T04:03:58.457Z,93.70
2023-05-04T04:06:45.972Z,93.70
2023-05-04T04:09:26.350Z,93.80
2023-05-04T04:12:13.534Z,92.50
2023-05-04T04:14:55.338Z,92.20
2023-05-04T04:17:42.484Z,91.30
2023-05-04T04:20:23.404Z,91.20
2023-05-04T04:23:10.473Z,90.90
2023-05-04T04:25:51.390Z,90.80
2023-05-04T04:28:39.461Z,90.20
2023-05-04T04:31:20.445Z,88.10
2023-05-04T04:34:00.889Z,87.40
2023-05-04T04:36:47.383Z,86.60
2023-05-04T04:39:27.827Z,85.70
2023-05-04T04:42:14.427Z,85.30
2023-05-04T04:45:05.605Z,85.00
2023-05-04T04:47:46.413Z,85.30
2023-05-04T04:50:33.429Z,85.50
2023-05-04T04:53:13.739Z,85.70
2023-05-04T04:56:00.376Z,85.80
2023-05-04T04:58:40.734Z,85.40
2023-05-04T05:01:27.431Z,84.50
2023-05-04T05:04:07.828Z,84.40
2023-05-04T05:06:54.398Z,84.10
2023-05-04T05:09:34.691Z,83.30
2023-05-04T05:12:21.409Z,82.20
2023-05-04T05:15:03.377Z,81.10
2023-05-04T05:17:50.517Z,81.10
2023-05-04T05:20:34.655Z,80.80
2023-05-04T05:23:21.386Z,80.70
2023-05-04T05:26:03.285Z,80.20
2023-05-04T05:28:50.424Z,80.40
2023-05-04T05:31:30.783Z,79.40
2023-05-04T05:34:17.416Z,78.20
2023-05-04T05:36:58.392Z,78.20
2023-05-04T05:39:45.473Z,76.60
2023-05-04T05:42:32.558Z,75.20
2023-05-04T05:45:14.466Z,74.30
2023-05-04T05:48:01.674Z,74.20
2023-05-04T05:50:41.532Z,74.90
2023-05-04T05:53:28.580Z,76.00
2023-05-04T05:56:08.460Z,76.20
2023-05-04T05:59:04.485Z,77.20
2023-05-04T06:01:54.200Z,76.60
2023-05-04T06:04:34.560Z,76.10
2023-05-04T06:07:22.087Z,75.80
2023-05-04T06:10:01.494Z,75.40
2023-05-04T06:12:48.700Z,72.40
2023-05-04T06:15:29.590Z,73.90
2023-05-04T06:18:16.664Z,72.80
2023-05-04T06:21:03.464Z,72.60
2023-05-04T06:23:50.573Z,72.40
2023-05-04T06:26:37.489Z,71.60
2023-05-04T06:29:24.596Z,71.20
2023-05-04T06:32:05.599Z,69.50
2023-05-04T06:34:52.592Z,69.90
2023-05-04T06:37:39.489Z,70.60
2023-05-04T06:40:33.514Z,73.60
2023-05-04T06:43:20.514Z,76.20
2023-05-04T06:46:00.806Z,75.80
2023-05-04T06:48:47.528Z,75.30
2023-05-04T06:51:27.723Z,72.70
2023-05-04T06:54:14.501Z,69.90
2023-05-04T06:57:01.520Z,68.40
2023-05-04T06:59:48.616Z,68.30
2023-05-04T07:02:28.566Z,71.10
2023-05-04T07:05:15.627Z,73.10
2023-05-04T07:07:56.610Z,75.20
2023-05-04T07:10:44.323Z,71.50
2023-05-04T07:19:11.610Z,67.50
2023-05-04T07:21:51.751Z,68.20
2023-05-04T07:24:42.647Z,67.70
2023-05-04T07:27:22.755Z,65.90
2023-05-04T07:30:09.574Z,63.20
2023-05-04T07:32:56.812Z,60.20
2023-05-04T07:35:36.580Z,58.10
2023-05-04T07:38:23.683Z,57.70
2023-05-04T07:41:03.527Z,56.90
2023-05-04T07:43:50.562Z,57.20
2023-05-04T07:46:30.955Z,56.10
2023-05-04T07:49:17.576Z,55.80
2023-05-04T07:51:57.669Z,56.20
2023-05-04T07:54:44.673Z,54.90
2023-05-04T07:57:24.709Z,52.00
2023-05-04T08:00:16.551Z,49.80
2023-05-04T08:02:57.286Z,46.80
2023-05-04T08:05:43.570Z,46.60
2023-05-04T08:08:23.680Z,45.60
2023-05-04T08:11:19.047Z,45.20
2023-05-04T08:14:00.701Z,45.90
2023-05-04T08:16:47.797Z,45.20
2023-05-04T08:19:28.707Z,43.60
2023-05-04T08:24:50.254Z,41.10
2023-05-04T08:27:36.665Z,39.40
2023-05-04T08:30:17.298Z,39.60
2023-05-04T08:33:03.674Z,42.30
2023-05-04T08:35:44.003Z,43.10
2023-05-04T08:38:30.709Z,44.80
2023-05-04T08:41:24.640Z,45.70
2023-05-04T08:44:13.707Z,45.80
2023-05-04T08:47:01.706Z,45.50
2023-05-04T08:49:48.785Z,45.20
2023-05-04T08:52:30.137Z,46.70
2023-05-04T08:55:11.210Z,46.70
2023-05-04T08:57:57.650Z,45.40
2023-05-04T09:00:44.919Z,44.90
2023-05-04T09:03:25.782Z,43.70
2023-05-04T09:11:14.262Z,40.90
2023-05-04T09:14:00.671Z,40.70
2023-05-04T09:16:47.796Z,39.20
2023-05-04T09:19:27.806Z,37.10
2023-05-04T09:22:21.578Z,35.30
2023-05-04T09:25:22.767Z,36.80
2023-05-04T09:28:03.065Z,38.30
2023-05-04T09:30:49.711Z,38.70
2023-05-04T09:33:30.122Z,38.00
2023-05-04T09:36:27.667Z,37.40
2023-05-04T09:39:19.346Z,37.30
2023-05-04T09:44:46.904Z,35.40
2023-05-04T09:47:26.757Z,34.30
2023-05-04T09:50:31.780Z,33.50
2023-05-04T09:53:12.077Z,33.80
2023-05-04T09:56:02.558Z,34.60
2023-05-04T09:58:49.962Z,36.20
2023-05-04T10:01:30.784Z,36.60
2023-05-04T10:04:17.825Z,36.40
2023-05-04T10:06:58.796Z,36.80
2023-05-04T10:09:46.136Z,35.80
2023-05-04T10:12:25.728Z,37.70
2023-05-04T10:15:13.851Z,35.00
2023-05-04T10:17:53.831Z,36.50
2023-05-04T10:20:58.930Z,34.30
2023-05-04T10:23:57.750Z,35.50
2023-05-04T10:26:54.860Z,38.20
2023-05-04T10:29:41.848Z,34.40
2023-05-04T10:32:28.859Z,35.80
2023-05-04T10:35:18.796Z,37.20
2023-05-04T10:38:00.847Z,38.80
2023-05-04T10:40:55.853Z,38.50
2023-05-04T10:43:42.766Z,40.00
2023-05-04T10:46:26.908Z,40.40
2023-05-04T10:49:22.940Z,37.20
2023-05-04T10:52:18.070Z,38.10
2023-05-04T10:55:07.052Z,38.10
2023-05-04T10:57:56.997Z,38.80
2023-05-04T11:00:44.829Z,40.40
2023-05-04T11:03:25.216Z,39.10
2023-05-04T11:06:26.817Z,37.30
2023-05-04T11:09:10.758Z,39.60
2023-05-04T11:11:58.827Z,38.60
2023-05-04T11:14:48.819Z,38.70
2023-05-04T11:17:35.963Z,37.50
2023-05-04T11:20:16.113Z,36.40
2023-05-04T11:23:03.880Z,35.70
2023-05-04T11:25:44.878Z,36.60
2023-05-04T11:28:31.802Z,38.50
2023-05-04T11:31:28.876Z,38.20
2023-05-04T11:34:16.759Z,38.90
2023-05-04T11:36:56.937Z,36.10
2023-05-04T11:39:43.976Z,37.10
2023-05-04T11:42:23.880Z,36.00
2023-05-04T11:45:10.978Z,36.90
2023-05-04T11:47:51.859Z,37.30
2023-05-04T11:50:32.530Z,38.10
2023-05-04T11:53:27.863Z,37.60
2023-05-04T11:56:16.010Z,35.70
2023-05-04T11:58:56.006Z,36.40
2023-05-04T12:01:42.883Z,36.50
2023-05-04T12:04:23.062Z,38.00
2023-05-04T12:07:12.954Z,37.10
2023-05-04T12:09:53.102Z,40.10
2023-05-04T12:12:42.956Z,40.20
2023-05-04T12:15:34.110Z,40.00
2023-05-04T12:18:27.912Z,39.90
2023-05-04T12:21:18.686Z,38.90
2023-05-04T12:24:05.911Z,39.60
2023-05-04T12:26:46.174Z,40.70
2023-05-04T12:29:32.928Z,36.90
2023-05-04T12:32:13.046Z,35.20
2023-05-04T12:34:59.977Z,35.50
2023-05-04T12:37:40.239Z,39.60
2023-05-04T12:40:28.629Z,38.40
2023-05-04T12:43:22.930Z,38.30
2023-05-04T12:46:10.092Z,40.40
2023-05-04T12:48:49.989Z,38.70
2023-05-04T12:51:37.059Z,42.70
2023-05-04T12:54:16.968Z,43.30
2023-05-04T12:57:04.095Z,42.80
2023-05-04T12:59:43.915Z,43.60
2023-05-04T13:02:31.135Z,39.00
2023-05-04T13:05:10.928Z,39.40
2023-05-04T13:07:58.305Z,40.70
2023-05-04T13:10:38.224Z,39.40
2023-05-04T13:13:28.646Z,40.60
2023-05-04T13:16:10.012Z,40.80
2023-05-04T13:18:57.228Z,41.90
2023-05-04T13:21:38.092Z,41.60
2023-05-04T13:24:25.081Z,42.60
2023-05-04T13:27:05.005Z,43.10
2023-05-04T13:29:52.112Z,42.70
2023-05-04T13:32:35.092Z,43.30
2023-05-04T13:35:22.296Z,42.90
2023-05-04T13:38:01.989Z,42.70
2023-05-04T13:40:57.181Z,43.20
2023-05-04T13:43:37.564Z,43.60
2023-05-04T13:46:23.988Z,43.80
2023-05-04T13:49:11.292Z,44.10
2023-05-04T13:51:51.998Z,43.20
2023-05-04T13:54:39.188Z,42.50
2023-05-04T13:57:20.015Z,41.90
2023-05-04T14:00:08.465Z,41.10
2023-05-04T14:02:49.140Z,41.00
2023-05-04T14:05:36.559Z,41.00
2023-05-04T14:08:18.090Z,41.20
2023-05-04T14:11:05.119Z,41.70
2023-05-04T14:13:45.028Z,43.00
2023-05-04T14:16:32.204Z,42.50
2023-05-04T14:19:12.047Z,42.90
2023-05-04T14:21:59.120Z,43.10
2023-05-04T14:24:39.045Z,43.30
2023-05-04T14:27:27.518Z,43.30
2023-05-04T14:30:08.250Z,43.30
2023-05-04T14:32:58.294Z,43.80
2023-05-04T14:35:38.401Z,43.80
2023-05-04T14:38:25.196Z,43.60
2023-05-04T14:41:20.072Z,43.70
2023-05-04T14:44:07.121Z,44.40
2023-05-04T14:46:47.471Z,44.60
2023-05-04T14:49:37.226Z,45.20
2023-05-04T14:52:18.235Z,45.00
2023-05-04T14:55:05.162Z,45.00
2023-05-04T14:57:45.198Z,45.30
2023-05-04T15:00:32.061Z,45.20
2023-05-04T15:03:13.349Z,45.60
2023-05-04T15:06:00.147Z,46.10
2023-05-04T15:08:40.158Z,46.20
2023-05-04T15:11:27.099Z,45.90
2023-05-04T15:14:07.234Z,45.90
2023-05-04T15:16:54.080Z,45.70
2023-05-04T15:19:34.369Z,45.10
2023-05-04T15:22:21.092Z,45.40
2023-05-04T15:25:01.942Z,46.70
2023-05-04T15:27:50.163Z,47.30
2023-05-04T15:30:30.239Z,46.80
2023-05-04T15:33:17.096Z,46.80
2023-05-04T15:35:57.224Z,47.30
2023-05-04T15:38:44.122Z,47.40
2023-05-04T15:41:38.122Z,47.90
2023-05-04T15:44:27.143Z,48.50
2023-05-04T15:47:09.667Z,49.00
2023-05-04T15:49:56.117Z,49.60
2023-05-04T15:52:36.321Z,50.10
2023-05-04T15:55:26.313Z,49.80
2023-05-04T15:58:13.130Z,50.20
2023-05-04T16:01:03.976Z,50.90
2023-05-04T16:03:45.271Z,52.20
2023-05-04T16:06:34.243Z,52.20
2023-05-04T16:09:14.132Z,51.70
2023-05-04T16:12:02.318Z,51.10
2023-05-04T16:14:43.201Z,51.70
2023-05-04T16:17:35.101Z,52.30
2023-05-04T16:20:16.153Z,52.40
2023-05-04T16:23:03.267Z,52.20
2023-05-04T16:25:43.175Z,52.70
2023-05-04T16:28:30.324Z,52.60
2023-05-04T16:31:14.182Z,52.10
2023-05-04T16:34:01.621Z,52.30
2023-05-04T16:36:41.190Z,53.50
2023-05-04T16:39:30.266Z,53.50
2023-05-04T16:42:11.295Z,53.70
2023-05-04T16:44:58.309Z,53.40
2023-05-04T16:47:38.256Z,53.50
2023-05-04T16:50:25.387Z,53.90
2023-05-04T16:53:05.228Z,53.90
2023-05-04T16:55:52.556Z,53.40
2023-05-04T16:58:39.217Z,53.10
2023-05-04T17:01:26.475Z,53.00
2023-05-04T17:04:13.686Z,53.30
2023-05-04T17:06:53.208Z,53.40
2023-05-04T17:09:41.354Z,53.70
2023-05-04T17:12:22.225Z,53.50
2023-05-04T17:15:09.396Z,53.50
2023-05-04T17:17:49.215Z,53.60
2023-05-04T17:20:36.510Z,53.90
2023-05-04T17:23:16.323Z,54.20
2023-05-04T17:26:03.586Z,55.00
2023-05-04T17:28:44.248Z,55.50
2023-05-04T17:31:31.641Z,55.80
2023-05-04T17:34:11.251Z,55.80
2023-05-04T17:36:58.365Z,56.00
2023-05-04T17:39:38.240Z,56.70
2023-05-04T17:42:32.416Z,57.40
2023-05-04T17:45:19.236Z,57.90
2023-05-04T17:48:00.614Z,58.70
2023-05-04T17:50:47.341Z,59.40
2023-05-04T17:53:27.503Z,59.90
2023-05-04T17:56:14.245Z,60.40
2023-05-04T17:58:54.358Z,60.70
2023-05-04T18:01:41.341Z,61.20
2023-05-04T18:04:28.288Z,61.40
2023-05-04T18:07:15.453Z,62.20
2023-05-04T18:09:55.349Z,62.40
2023-05-04T18:12:43.585Z,62.90
2023-05-04T18:15:25.321Z,63.20
2023-05-04T18:18:12.414Z,63.70
2023-05-04T18:20:53.372Z,64.00
2023-05-04T18:23:41.839Z,64.20
2023-05-04T18:26:29.313Z,64.30
2023-05-04T18:29:19.217Z,64.70
2023-05-04T18:31:59.277Z,65.00
2023-05-04T18:34:51.174Z,65.10
2023-05-04T18:37:32.388Z,65.30
2023-05-04T18:40:19.417Z,65.80
2023-05-04T18:43:06.331Z,66.10
2023-05-04T18:45:46.585Z,66.50
2023-05-04T18:48:33.295Z,66.80
2023-05-04T18:51:13.563Z,66.90
2023-05-04T18:54:00.461Z,67.10
2023-05-04T18:56:40.418Z,67.40
2023-05-04T18:59:27.341Z,67.60
2023-05-04T19:02:08.326Z,67.80
2023-05-04T19:04:55.428Z,67.60
2023-05-04T19:07:42.362Z,67.80
2023-05-04T19:10:29.448Z,68.00
2023-05-04T19:13:09.442Z,67.90
2023-05-04T19:15:49.610Z,68.10
2023-05-04T19:18:36.489Z,68.50
2023-05-04T19:21:23.524Z,68.90
2023-05-04T19:24:03.329Z,69.40
2023-05-04T19:26:43.804Z,69.70
2023-05-04T19:29:30.349Z,70.00
2023-05-04T19:32:24.309Z,70.20
2023-05-04T19:35:05.380Z,70.50
2023-05-04T19:37:52.501Z,70.60
2023-05-04T19:40:32.391Z,70.80
2023-05-04T19:43:19.486Z,71.00
2023-05-04T19:45:59.444Z,71.10
2023-05-04T19:48:46.787Z,71.20
2023-05-04T19:51:26.367Z,71.30
2023-05-04T19:54:13.498Z,71.40
2023-05-04T19:56:53.401Z,71.50
2023-05-04T19:59:34.037Z,71.60
2023-05-04T20:02:20.442Z,71.50
2023-05-04T20:05:07.637Z,71.40
2023-05-04T20:07:47.491Z,71.20
2023-05-04T20:10:34.537Z,71.00
2023-05-04T20:13:15.453Z,70.80
2023-05-04T20:15:56.230Z,70.70
2023-05-04T20:18:43.416Z,70.40
2023-05-04T20:21:37.413Z,70.50
2023-05-04T20:24:25.324Z,70.60
2023-05-04T20:27:05.496Z,70.70
2023-05-04T20:29:52.507Z,70.90
2023-05-04T20:32:32.469Z,71.10
2023-05-04T20:35:19.507Z,71.20
2023-05-04T20:37:59.516Z,71.20
2023-05-04T20:40:46.943Z,71.50
2023-05-04T20:43:33.443Z,71.80
2023-05-04T20:46:13.582Z,72.10
2023-05-04T20:49:00.557Z,72.30
2023-05-04T20:51:40.591Z,72.60
2023-05-04T20:54:27.442Z,73.10
2023-05-04T20:57:07.950Z,73.50
2023-05-04T20:59:54.423Z,73.90
2023-05-04T21:02:34.956Z,74.30
2023-05-04T21:05:21.461Z,74.60
2023-05-04T21:08:01.600Z,74.80
2023-05-04T21:10:48.459Z,75.00
2023-05-04T21:13:28.586Z,75.20
2023-05-04T21:16:15.460Z,75.40
2023-05-04T21:18:55.557Z,75.60
2023-05-04T21:21:47.456Z,75.80
2023-05-04T21:24:27.589Z,76.00
2023-05-04T21:27:14.441Z,76.30
2023-05-04T21:30:01.520Z,76.40
2023-05-04T21:32:49.365Z,76.60
2023-05-04T21:35:31.510Z,77.00
2023-05-04T21:38:21.636Z,77.40
2023-05-04T21:41:01.512Z,77.70
2023-05-04T21:43:48.611Z,78.10
2023-05-04T21:46:28.611Z,78.80
2023-05-04T21:49:15.653Z,80.00
2023-05-04T21:51:55.575Z,79.50
2023-05-04T21:54:42.659Z,80.10
2023-05-04T21:57:22.724Z,80.30
2023-05-04T22:00:12.728Z,80.60
2023-05-04T22:02:53.695Z,80.90
2023-05-04T22:05:40.622Z,81.30
2023-05-04T22:08:20.559Z,81.50
2023-05-04T22:11:07.740Z,81.40
2023-05-04T22:13:47.610Z,81.60
2023-05-04T22:16:34.735Z,81.80
2023-05-04T22:19:14.519Z,81.80
2023-05-04T22:22:01.688Z,81.90
2023-05-04T22:24:42.611Z,81.80
2023-05-04T22:27:29.930Z,81.60
2023-05-04T22:30:09.788Z,81.70
2023-05-04T22:32:57.121Z,82.00
2023-05-04T22:35:38.570Z,83.20
2023-05-04T22:38:19.108Z,82.70
2023-05-04T22:41:06.606Z,82.90
2023-05-04T22:43:53.657Z,83.20
2023-05-04T22:46:33.621Z,83.50
2023-05-04T22:49:20.560Z,83.70
2023-05-04T22:52:00.946Z,84.00
2023-05-04T22:54:47.581Z,84.10
2023-05-04T22:57:27.764Z,84.30
2023-05-04T23:00:14.675Z,84.60
2023-05-04T23:02:54.798Z,85.70
2023-05-04T23:05:41.605Z,84.90
2023-05-04T23:08:21.689Z,85.20
2023-05-04T23:11:08.806Z,85.30
2023-05-04T23:13:48.745Z,85.40
2023-05-04T23:16:35.723Z,85.40
2023-05-04T23:19:15.703Z,85.50
2023-05-04T23:22:03.720Z,85.70
2023-05-04T23:24:43.784Z,85.80
2023-05-04T23:27:30.610Z,86.00
2023-05-04T23:30:10.780Z,86.20
2023-05-04T23:32:57.717Z,86.50
2023-05-04T23:35:38.142Z,86.90
2023-05-04T23:38:24.652Z,87.80
2023-05-04T23:41:05.834Z,88.70
2023-05-04T23:43:53.660Z,89.10
2023-05-04T23:46:33.712Z,89.50
2023-05-04T23:49:20.616Z,90.50
2023-05-04T23:52:00.957Z,90.30
2023-05-04T23:54:47.641Z,90.60
2023-05-04T23:57:27.818Z,90.80
